Wednesday, August 15, 2018, 7:05 AM EDT
Back to Local

KWWD, Wildwood, Cape May County Airport

Location: Villas, NJ, United States Lat: 39.017
Local Time: 7:05 AM EDT (11:05 GMT) Lon: -74.917
Time Zone: US/Eastern Elev: 22 ft

Show me the last for .
Show Decoded

2018-08-15 06:55 METAR KWWD 151055Z AUTO 28008G15KT 10SM CLR 24/21 A2995 RMK AO2 SLP144 T02390206
                 =
2018-08-15 05:55 METAR KWWD 150955Z AUTO 27010KT 10SM CLR 23/20 A2994 RMK AO2 SLP139 T02330200 =
2018-08-15 04:55 METAR KWWD 150855Z AUTO 27007KT 10SM CLR 23/20 A2993 RMK AO2 SLP137 T02330200
                 56003 =
2018-08-15 03:55 METAR KWWD 150755Z AUTO 25005KT 10SM CLR 23/21 A2993 RMK AO2 SLP138 T02280206 =
2018-08-15 02:55 METAR KWWD 150655Z AUTO 23007KT 10SM CLR 23/21 A2993 RMK AO2 SLP138 T02280206 =
2018-08-15 01:55 METAR KWWD 150555Z AUTO 25006KT 10SM FEW090 23/21 A2994 RMK AO2 SLP140 60003
                 T02330211 10261 20233 50002 =
2018-08-14 23:55 METAR KWWD 150355Z AUTO 26007KT 10SM CLR 23/21 A2994 RMK AO2 SLP141 T02330206 =
2018-08-14 22:55 METAR KWWD 150255Z AUTO 25007KT 10SM CLR 24/21 A2993 RMK AO2 SLP138 60003
                 T02390206 53010 =
2018-08-14 21:55 METAR KWWD 150155Z AUTO 25009KT 10SM SCT048 BKN060 24/21 A2992 RMK AO2 LTG DSNT
                 NE RAB20E33 SLP134 P0003 T02440206 =
2018-08-14 20:55 METAR KWWD 150055Z AUTO 22009KT 10SM SCT046 OVC060 26/20 A2992 RMK AO2 SLP132
                 T02610200 =
2018-08-14 19:55 METAR KWWD 142355Z AUTO 23010KT 10SM CLR 26/20 A2990 RMK AO2 SLP128 T02610200
                 10289 20261 51008 =
2018-08-14 18:55 METAR KWWD 142255Z AUTO 25011KT 10SM CLR 27/20 A2989 RMK AO2 SLP125 T02720200 =
2018-08-14 17:55 METAR KWWD 142155Z AUTO 24013G18KT 10SM CLR 28/20 A2989 RMK AO2 SLP124 T02780200
                 =
2018-08-14 16:55 METAR KWWD 142055Z AUTO 25012KT 10SM CLR 28/20 A2988 RMK AO2 SLP120 T02830200
                 55010 =
2018-08-14 15:55 METAR KWWD 141955Z AUTO 27012G15KT 10SM CLR 28/21 A2988 RMK AO2 SLP118 T02830206
                 =
2018-08-14 13:55 METAR KWWD 141755Z AUTO 26012KT 10SM CLR 28/21 A2991 RMK AO2 SLP130 T02780206
                 10278 20233 58010 =
2018-08-14 12:55 METAR KWWD 141655Z AUTO 25011G15KT 10SM CLR 27/21 A2992 RMK AO2 SLP135 T02670206
                 =
2018-08-14 11:55 METAR KWWD 141555Z AUTO 26008KT 10SM CLR 27/21 A2994 RMK AO2 SLP139 T02670211 =
2018-08-14 11:15 METAR KWWD 141515Z AUTO 29009KT 10SM SCT016 25/21 A2994 RMK AO2 =
2018-08-14 11:08 METAR KWWD 141508Z AUTO 27010KT 10SM BKN016 24/20 A2993 RMK AO2 =
2018-08-14 10:55 METAR KWWD 141455Z AUTO 26009KT 10SM BKN014 25/21 A2994 RMK AO2 SLP140 T02500206
                 53005 =
2018-08-14 09:55 METAR KWWD 141355Z AUTO 24011KT 10SM BKN012 25/21 A2993 RMK AO2 SLP138 T02500211
                 =
2018-08-14 08:55 METAR KWWD 141255Z AUTO 26010G17KT 10SM BKN010 24/21 A2993 RMK AO2 SLP136
                 T02390211 =
2018-08-14 08:49 METAR KWWD 141249Z AUTO 24013G17KT 10SM BKN010 24/22 A2992 RMK AO2 =
2018-08-14 07:55 METAR KWWD 141155Z AUTO 25007KT 10SM BKN008 23/22 A2992 RMK AO2 SLP135 70007
                 T02330222 10233 20217 51008 =

Support USWX by starting your Amazon purchase here.